createdAt,value
2017-07-08T00:00:56.186Z,11.23
2017-07-08T00:03:24.519Z,9.60
2017-07-08T00:05:52.837Z,9.93
2017-07-08T00:08:21.109Z,12.43
2017-07-08T00:10:49.391Z,11.40
2017-07-08T00:13:17.818Z,10.90
2017-07-08T00:15:46.075Z,12.80
2017-07-08T00:18:14.370Z,13.60
2017-07-08T00:20:42.639Z,11.50
2017-07-08T00:23:10.995Z,12.57
2017-07-08T00:25:39.284Z,10.77
2017-07-08T00:28:07.576Z,11.27
2017-07-08T00:30:35.860Z,10.20
2017-07-08T00:33:04.892Z,16.10
2017-07-08T00:35:33.174Z,14.63
2017-07-08T00:38:01.494Z,13.13
2017-07-08T00:40:30.522Z,13.53
2017-07-08T00:42:58.830Z,13.70
2017-07-08T00:45:27.144Z,12.40
2017-07-08T00:47:55.625Z,13.03
2017-07-08T00:50:23.869Z,18.97
2017-07-08T00:52:52.161Z,15.83
2017-07-08T00:55:20.556Z,15.20
2017-07-08T00:57:48.918Z,10.67
2017-07-08T01:00:17.202Z,14.10
2017-07-08T01:02:45.518Z,14.93
2017-07-08T01:05:14.615Z,17.90
2017-07-08T01:07:42.890Z,16.40
2017-07-08T01:10:11.171Z,16.80
2017-07-08T01:12:39.436Z,18.20
2017-07-08T01:15:07.857Z,14.57
2017-07-08T01:17:36.140Z,14.90
2017-07-08T01:20:04.463Z,14.30
2017-07-08T01:22:32.734Z,13.40
2017-07-08T01:25:01.118Z,17.00
2017-07-08T01:27:30.231Z,15.40
2017-07-08T01:29:58.633Z,13.13
2017-07-08T01:32:26.928Z,14.20
2017-07-08T01:34:55.231Z,15.80
2017-07-08T01:37:23.510Z,18.30
2017-07-08T01:39:51.840Z,15.43
2017-07-08T01:42:20.153Z,14.93
2017-07-08T01:44:48.434Z,14.80
2017-07-08T01:47:16.746Z,15.13
2017-07-08T01:49:45.073Z,14.77
2017-07-08T01:52:13.433Z,13.97
2017-07-08T01:54:41.774Z,13.13
2017-07-08T01:57:10.069Z,14.90
2017-07-08T01:59:38.366Z,16.53
2017-07-08T02:02:06.661Z,17.07
2017-07-08T02:04:34.968Z,18.33
2017-07-08T02:07:03.235Z,16.20
2017-07-08T02:09:31.499Z,15.77
2017-07-08T02:11:59.769Z,15.60
2017-07-08T02:14:28.032Z,16.40
2017-07-08T02:16:56.341Z,16.67
2017-07-08T02:19:24.604Z,14.77
2017-07-08T02:21:52.874Z,14.47
2017-07-08T02:24:21.158Z,15.40
2017-07-08T02:26:49.436Z,14.93
2017-07-08T02:29:21.921Z,17.50
2017-07-08T02:31:50.225Z,16.30
2017-07-08T02:34:18.537Z,14.70
2017-07-08T02:36:47.584Z,14.53
2017-07-08T02:39:15.878Z,15.10
2017-07-08T02:41:44.130Z,15.60
2017-07-08T02:44:12.412Z,16.20
2017-07-08T02:46:40.753Z,17.73
2017-07-08T02:49:08.972Z,17.17
2017-07-08T02:51:37.252Z,19.30
2017-07-08T02:54:05.521Z,18.00
2017-07-08T02:56:33.804Z,15.30
2017-07-08T02:59:02.100Z,14.43
2017-07-08T03:01:30.444Z,15.13
2017-07-08T03:03:58.696Z,17.20
2017-07-08T03:06:27.023Z,14.90
2017-07-08T03:08:55.280Z,16.53
2017-07-08T03:11:23.532Z,15.17
2017-07-08T03:13:51.805Z,14.63
2017-07-08T03:16:20.084Z,13.80
2017-07-08T03:18:48.344Z,14.93
2017-07-08T03:21:16.639Z,16.73
2017-07-08T03:23:44.883Z,15.73
2017-07-08T03:26:13.929Z,16.10
2017-07-08T03:28:42.244Z,16.17
2017-07-08T03:31:10.508Z,17.10
2017-07-08T03:33:39.606Z,16.33
2017-07-08T03:36:07.862Z,16.43
2017-07-08T03:38:36.151Z,17.93
2017-07-08T03:41:04.501Z,19.77
2017-07-08T03:43:32.767Z,18.23
2017-07-08T03:46:01.040Z,18.37
2017-07-08T03:48:29.323Z,17.53
2017-07-08T03:50:57.589Z,16.10
2017-07-08T03:53:25.852Z,16.63
2017-07-08T03:55:54.129Z,17.23
2017-07-08T03:58:22.405Z,17.90
2017-07-08T04:00:50.677Z,18.83
2017-07-08T04:03:18.945Z,21.63
2017-07-08T04:05:47.973Z,23.50
2017-07-08T04:08:16.244Z,24.30
2017-07-08T04:10:44.522Z,23.07
2017-07-08T04:13:12.804Z,18.83
2017-07-08T04:15:41.100Z,18.47
2017-07-08T04:18:09.350Z,20.90
2017-07-08T04:20:37.624Z,20.43
2017-07-08T04:23:06.659Z,22.50
2017-07-08T04:25:34.980Z,24.93
2017-07-08T04:28:03.237Z,23.87
2017-07-08T04:30:31.524Z,23.53
2017-07-08T04:32:59.822Z,24.00
2017-07-08T04:35:28.160Z,24.73
2017-07-08T04:37:56.425Z,21.30
2017-07-08T04:40:24.704Z,19.83
2017-07-08T04:42:53.057Z,19.07
2017-07-08T04:45:21.326Z,19.73
2017-07-08T04:47:53.045Z,18.07
2017-07-08T04:50:21.333Z,20.70
2017-07-08T04:52:49.585Z,21.97
2017-07-08T04:55:17.839Z,24.33
2017-07-08T04:57:46.130Z,22.50
2017-07-08T05:00:14.386Z,24.10
2017-07-08T05:02:42.685Z,22.17
2017-07-08T05:05:10.953Z,28.00
2017-07-08T05:07:40.190Z,28.70
2017-07-08T05:10:08.428Z,32.40
2017-07-08T05:12:36.685Z,30.80
2017-07-08T05:15:04.991Z,31.63
2017-07-08T05:17:33.244Z,32.30
2017-07-08T05:20:01.531Z,32.03
2017-07-08T05:22:29.799Z,34.43
2017-07-08T05:24:58.093Z,37.93
2017-07-08T05:27:26.370Z,35.33
2017-07-08T05:29:54.666Z,33.47
2017-07-08T05:32:23.697Z,34.90
2017-07-08T05:34:51.974Z,31.90
2017-07-08T05:37:20.238Z,31.90
2017-07-08T05:39:49.271Z,29.10
2017-07-08T05:42:17.594Z,26.70
2017-07-08T05:44:45.931Z,32.20
2017-07-08T05:47:14.208Z,30.20
2017-07-08T05:49:42.468Z,28.83
2017-07-08T05:52:10.761Z,29.20
2017-07-08T05:54:39.053Z,32.73
2017-07-08T05:57:07.339Z,32.20
2017-07-08T05:59:36.489Z,32.00
2017-07-08T06:02:04.768Z,29.53
2017-07-08T06:04:33.030Z,31.37
2017-07-08T06:07:01.923Z,29.87
2017-07-08T06:09:30.207Z,31.17
2017-07-08T06:11:58.473Z,27.40
2017-07-08T06:14:26.835Z,30.90
2017-07-08T06:16:55.116Z,31.83
2017-07-08T06:19:23.373Z,29.13
2017-07-08T06:21:51.682Z,27.00
2017-07-08T06:24:20.737Z,28.07
2017-07-08T06:26:49.058Z,28.97
2017-07-08T06:29:17.369Z,30.00
2017-07-08T06:31:46.405Z,29.57
2017-07-08T06:34:14.703Z,28.83
2017-07-08T06:36:42.974Z,30.73
2017-07-08T06:39:11.275Z,29.60
2017-07-08T06:41:39.524Z,29.87
2017-07-08T06:44:08.776Z,28.83
2017-07-08T06:46:37.058Z,30.27
2017-07-08T06:49:06.215Z,28.90
2017-07-08T06:51:34.532Z,28.80
2017-07-08T06:54:02.817Z,29.17
2017-07-08T06:56:31.118Z,28.37
2017-07-08T06:58:59.366Z,25.67
2017-07-08T07:01:28.436Z,25.90
2017-07-08T07:03:57.478Z,26.20
2017-07-08T07:06:25.912Z,25.60
2017-07-08T07:08:54.948Z,24.00
2017-07-08T07:11:23.246Z,24.83
2017-07-08T07:13:51.515Z,25.60
2017-07-08T07:16:19.806Z,24.70
2017-07-08T07:18:48.075Z,24.17
2017-07-08T07:21:16.477Z,24.43
2017-07-08T07:23:44.772Z,24.57
2017-07-08T07:26:13.093Z,24.43
2017-07-08T07:28:41.384Z,26.37
2017-07-08T07:31:09.724Z,25.23
2017-07-08T07:33:38.000Z,26.83
2017-07-08T07:36:06.278Z,25.00
2017-07-08T07:38:34.740Z,25.80
2017-07-08T07:41:04.139Z,27.07
2017-07-08T07:43:32.484Z,23.90
2017-07-08T07:46:00.753Z,28.17
2017-07-08T07:48:29.054Z,23.23
2017-07-08T07:50:58.117Z,24.03
2017-07-08T07:53:26.400Z,24.60
2017-07-08T07:55:54.698Z,24.93
2017-07-08T07:58:22.953Z,25.17
2017-07-08T08:00:51.282Z,24.20
2017-07-08T08:03:19.552Z,22.80
2017-07-08T08:05:47.889Z,22.00
2017-07-08T08:08:16.191Z,23.33
2017-07-08T08:10:44.582Z,20.03
2017-07-08T08:13:12.840Z,20.20
2017-07-08T08:15:41.141Z,17.83
2017-07-08T08:18:09.533Z,18.80
2017-07-08T08:20:37.845Z,21.57
2017-07-08T08:23:06.928Z,20.40
2017-07-08T08:25:35.872Z,18.63
2017-07-08T08:28:04.164Z,18.27
2017-07-08T08:30:33.289Z,16.77
2017-07-08T08:33:01.548Z,10.27
2017-07-08T08:35:29.990Z,11.27
2017-07-08T08:38:05.108Z,10.27
2017-07-08T08:40:33.433Z,10.47
2017-07-08T08:43:02.492Z,13.07
2017-07-08T08:45:30.833Z,12.90
2017-07-08T08:47:59.178Z,12.90
2017-07-08T08:50:28.197Z,11.20
2017-07-08T08:52:56.517Z,9.90
2017-07-08T08:55:25.573Z,10.40
2017-07-08T08:57:54.043Z,10.97
2017-07-08T09:00:23.065Z,9.70
2017-07-08T09:02:52.173Z,11.00
2017-07-08T09:05:20.480Z,10.07
2017-07-08T09:07:48.781Z,10.13
2017-07-08T09:10:17.049Z,9.30
2017-07-08T09:12:45.361Z,9.73
2017-07-08T09:15:13.708Z,8.80
2017-07-08T09:17:42.800Z,9.73
2017-07-08T09:20:11.089Z,9.40
2017-07-08T09:22:39.400Z,9.30
2017-07-08T09:25:07.719Z,9.40
2017-07-08T09:27:36.027Z,8.80
2017-07-08T09:30:05.058Z,9.17
2017-07-08T09:32:33.409Z,9.20
2017-07-08T09:35:01.677Z,9.97
2017-07-08T09:37:29.957Z,10.27
2017-07-08T09:39:58.256Z,10.90
2017-07-08T09:42:26.590Z,11.03
2017-07-08T09:44:54.913Z,8.67
2017-07-08T09:47:23.234Z,9.07
2017-07-08T09:49:51.523Z,8.77
2017-07-08T09:52:20.617Z,8.07
2017-07-08T09:54:49.659Z,10.27
2017-07-08T09:57:17.970Z,9.63
2017-07-08T09:59:46.310Z,10.17
2017-07-08T10:02:14.614Z,9.10
2017-07-08T10:04:42.879Z,8.97
2017-07-08T10:07:11.148Z,8.13
2017-07-08T10:09:39.452Z,7.87
2017-07-08T10:12:07.840Z,7.90
2017-07-08T10:14:36.308Z,8.40
2017-07-08T10:17:10.420Z,8.80
2017-07-08T10:19:40.228Z,8.97
2017-07-08T10:22:09.549Z,9.40
2017-07-08T10:24:40.234Z,8.50
2017-07-08T10:27:09.483Z,7.60
2017-07-08T10:29:39.578Z,8.60
2017-07-08T10:32:10.457Z,7.53
2017-07-08T10:34:39.277Z,8.80
2017-07-08T10:37:08.708Z,8.37
2017-07-08T10:39:37.844Z,6.03
2017-07-08T10:42:08.136Z,6.20
2017-07-08T10:44:37.416Z,6.10
2017-07-08T10:47:08.779Z,6.63
2017-07-08T10:49:40.154Z,6.40
2017-07-08T10:52:13.150Z,5.13
2017-07-08T10:54:44.083Z,5.47
2017-07-08T10:57:12.967Z,5.03
2017-07-08T10:59:41.643Z,5.20
2017-07-08T11:02:10.709Z,4.90
2017-07-08T11:04:38.977Z,5.57
2017-07-08T11:07:07.315Z,5.07
2017-07-08T11:09:35.637Z,4.67
2017-07-08T11:12:03.920Z,6.00
2017-07-08T11:14:32.243Z,6.60
2017-07-08T11:17:00.484Z,6.40
2017-07-08T11:19:28.755Z,5.73
2017-07-08T11:21:57.037Z,7.10
2017-07-08T11:24:25.342Z,5.90
2017-07-08T11:26:53.641Z,5.77
2017-07-08T11:29:21.941Z,5.57
2017-07-08T11:31:50.252Z,7.00
2017-07-08T11:34:19.294Z,6.10
2017-07-08T11:36:47.557Z,6.37
2017-07-08T11:39:15.824Z,7.03
2017-07-08T11:41:44.133Z,6.70
2017-07-08T11:44:12.407Z,7.00
2017-07-08T11:46:40.700Z,7.10
2017-07-08T11:49:09.013Z,7.57
2017-07-08T11:51:38.062Z,6.70
2017-07-08T11:54:06.427Z,6.77
2017-07-08T11:56:34.823Z,6.60
2017-07-08T11:59:03.133Z,6.00
2017-07-08T12:01:32.974Z,6.57
2017-07-08T12:04:01.246Z,6.43
2017-07-08T12:06:29.517Z,7.20
2017-07-08T12:08:58.556Z,6.20
2017-07-08T12:11:26.830Z,4.90
2017-07-08T12:13:55.078Z,5.10
2017-07-08T12:16:23.396Z,6.07
2017-07-08T12:18:51.900Z,7.20
2017-07-08T12:21:20.200Z,5.80
2017-07-08T12:23:48.496Z,6.63
2017-07-08T12:26:16.745Z,5.90
2017-07-08T12:28:46.029Z,4.80
2017-07-08T12:31:14.301Z,5.50
2017-07-08T12:33:42.562Z,6.53
2017-07-08T12:36:11.667Z,6.20
2017-07-08T12:38:40.157Z,8.07
2017-07-08T12:41:08.414Z,5.93
2017-07-08T12:43:36.720Z,4.63
2017-07-08T12:46:05.758Z,5.77
2017-07-08T12:48:34.020Z,5.57
2017-07-08T12:51:02.564Z,5.50
2017-07-08T12:53:30.839Z,5.47
2017-07-08T12:55:59.165Z,7.00
2017-07-08T12:58:28.352Z,5.40
2017-07-08T13:00:56.643Z,7.50
2017-07-08T13:03:25.148Z,6.43
2017-07-08T13:05:53.447Z,6.77
2017-07-08T13:08:21.789Z,6.13
2017-07-08T13:10:50.083Z,6.10
2017-07-08T13:13:18.425Z,5.70
2017-07-08T13:15:46.743Z,5.13
2017-07-08T13:18:15.045Z,6.23
2017-07-08T13:20:43.325Z,6.27
2017-07-08T13:23:12.376Z,5.50
2017-07-08T13:25:40.658Z,6.67
2017-07-08T13:28:08.950Z,6.80
2017-07-08T13:30:38.040Z,5.40
2017-07-08T13:33:06.295Z,5.40
2017-07-08T13:35:34.569Z,5.03
2017-07-08T13:38:02.846Z,6.23
2017-07-08T13:40:31.101Z,5.63
2017-07-08T13:42:59.542Z,4.73
2017-07-08T13:45:27.807Z,5.53
2017-07-08T13:47:56.064Z,4.50
2017-07-08T13:50:24.355Z,5.77
2017-07-08T13:52:52.829Z,5.63
2017-07-08T13:55:21.938Z,4.73
2017-07-08T13:57:50.328Z,4.87
2017-07-08T14:00:18.645Z,4.80
2017-07-08T14:02:46.940Z,4.87
2017-07-08T14:05:15.232Z,4.83
2017-07-08T14:07:43.523Z,5.80
2017-07-08T14:10:11.801Z,5.40
2017-07-08T14:12:40.143Z,4.80
2017-07-08T14:15:08.399Z,5.53
2017-07-08T14:17:36.680Z,5.30
2017-07-08T14:20:05.052Z,5.07
2017-07-08T14:22:33.416Z,6.17
2017-07-08T14:25:02.543Z,4.87
2017-07-08T14:27:30.816Z,7.20
2017-07-08T14:29:59.207Z,6.73
2017-07-08T14:32:27.498Z,6.77
2017-07-08T14:34:55.902Z,6.37
2017-07-08T14:37:24.981Z,5.60
2017-07-08T14:39:54.121Z,6.93
2017-07-08T14:42:23.147Z,8.27
2017-07-08T14:44:51.581Z,8.00
2017-07-08T14:47:20.670Z,6.63
2017-07-08T14:49:48.933Z,6.50
2017-07-08T14:52:17.208Z,6.43
2017-07-08T14:54:46.847Z,7.37
2017-07-08T14:57:15.926Z,6.90
2017-07-08T14:59:44.228Z,6.23
2017-07-08T15:02:12.528Z,7.13
2017-07-08T15:07:40.645Z,6.63
2017-07-08T15:10:08.963Z,9.17
2017-07-08T15:12:37.233Z,7.73
2017-07-08T15:15:05.484Z,8.10
2017-07-08T15:17:33.782Z,8.40
2017-07-08T15:20:02.094Z,8.80
2017-07-08T15:22:30.374Z,8.17
2017-07-08T15:24:58.688Z,8.40
2017-07-08T15:27:27.778Z,8.30
2017-07-08T15:29:56.080Z,7.57
2017-07-08T15:32:24.472Z,8.00
2017-07-08T15:34:52.763Z,7.10
2017-07-08T15:37:22.413Z,7.30
2017-07-08T15:39:50.708Z,7.33
2017-07-08T15:42:18.993Z,7.17
2017-07-08T15:44:47.262Z,7.30
2017-07-08T15:47:15.569Z,6.87
2017-07-08T15:49:44.634Z,6.97
2017-07-08T15:52:13.040Z,6.47
2017-07-08T15:54:41.921Z,7.30
2017-07-08T15:57:10.169Z,20.50
2017-07-08T15:59:38.437Z,16.50
2017-07-08T16:02:07.550Z,8.90
2017-07-08T16:04:36.048Z,20.83
2017-07-08T16:07:04.361Z,9.30
2017-07-08T16:12:32.926Z,8.97
2017-07-08T16:15:01.250Z,8.40
2017-07-08T16:17:29.528Z,10.43
2017-07-08T16:19:57.819Z,9.70
2017-07-08T16:22:26.163Z,8.00
2017-07-08T16:24:55.197Z,10.03
2017-07-08T16:27:23.551Z,18.93
2017-07-08T16:29:51.820Z,8.23
2017-07-08T16:32:20.180Z,9.90
2017-07-08T16:34:49.225Z,8.30
2017-07-08T16:37:17.581Z,7.67
2017-07-08T16:39:45.880Z,8.30
2017-07-08T16:42:14.157Z,9.00
2017-07-08T16:44:43.400Z,8.13
2017-07-08T16:47:11.789Z,8.63
2017-07-08T16:49:40.559Z,9.10
2017-07-08T16:52:09.597Z,7.57
2017-07-08T16:54:37.870Z,8.00
2017-07-08T16:57:06.226Z,6.67
2017-07-08T16:59:35.333Z,6.77
2017-07-08T17:02:03.766Z,7.07
2017-07-08T17:04:32.442Z,7.27
2017-07-08T17:07:01.019Z,7.10
2017-07-08T17:09:29.464Z,7.03
2017-07-08T17:11:57.887Z,7.63
2017-07-08T17:14:26.274Z,7.60
2017-07-08T17:16:54.551Z,7.57
2017-07-08T17:19:22.865Z,8.00
2017-07-08T17:21:51.147Z,8.10
2017-07-08T17:24:19.453Z,8.10
2017-07-08T17:26:48.527Z,7.60
2017-07-08T17:29:16.829Z,7.47
2017-07-08T17:31:45.084Z,8.10
2017-07-08T17:34:14.155Z,7.50
2017-07-08T17:36:42.545Z,6.80
2017-07-08T17:39:10.901Z,7.40
2017-07-08T17:41:39.507Z,8.10
2017-07-08T17:44:07.802Z,7.80
2017-07-08T17:46:36.648Z,8.17
2017-07-08T17:49:05.035Z,7.90
2017-07-08T17:51:33.369Z,7.83
2017-07-08T17:54:01.648Z,7.67
2017-07-08T17:56:29.980Z,7.20
2017-07-08T17:58:58.462Z,6.70
2017-07-08T18:01:26.815Z,6.40
2017-07-08T18:03:55.166Z,6.23
2017-07-08T18:06:23.453Z,6.00
2017-07-08T18:08:51.766Z,7.10
2017-07-08T18:11:20.141Z,6.60
2017-07-08T18:13:48.476Z,6.80
2017-07-08T18:16:16.728Z,7.27
2017-07-08T18:18:45.205Z,6.80
2017-07-08T18:21:14.227Z,6.90
2017-07-08T18:23:42.494Z,6.37
2017-07-08T18:26:10.837Z,6.70
2017-07-08T18:28:39.136Z,6.97
2017-07-08T22:35:03.981Z,14.40
2017-07-08T22:37:33.153Z,15.33
2017-07-08T22:40:01.407Z,13.63
2017-07-08T22:42:29.715Z,16.13
2017-07-08T22:44:57.992Z,14.00
2017-07-08T22:47:27.037Z,13.70
2017-07-08T22:49:55.331Z,14.33
2017-07-08T22:52:23.645Z,16.37
2017-07-08T22:54:51.948Z,13.77
2017-07-08T22:57:20.255Z,13.00
2017-07-08T22:59:48.554Z,15.70
2017-07-08T23:02:16.929Z,14.13
2017-07-08T23:04:45.997Z,13.97
2017-07-08T23:07:14.289Z,13.83
2017-07-08T23:09:42.594Z,13.73
2017-07-08T23:12:10.940Z,13.10
2017-07-08T23:14:39.383Z,13.13
2017-07-08T23:17:09.035Z,13.80
2017-07-08T23:19:37.431Z,13.70
2017-07-08T23:22:05.708Z,13.60
2017-07-08T23:24:34.074Z,13.57
2017-07-08T23:27:02.376Z,13.67
2017-07-08T23:29:30.662Z,12.87
2017-07-08T23:31:58.924Z,11.80
2017-07-08T23:34:27.335Z,13.80
2017-07-08T23:36:55.600Z,13.70
2017-07-08T23:39:24.663Z,11.97
2017-07-08T23:41:52.976Z,14.20
2017-07-08T23:44:21.310Z,13.53
2017-07-08T23:46:49.597Z,13.37
2017-07-08T23:49:17.872Z,12.83
2017-07-08T23:51:46.179Z,12.60
2017-07-08T23:54:14.433Z,12.43
2017-07-08T23:56:42.728Z,13.20
2017-07-08T23:59:11.057Z,12.30
